Avoca, New York
Current Conditions -  °F | °C
As of 11:54 PM on Thursday 30 Oct 2014 (Local Time) from KDSV Reporting Station
Overcast Overcast  
Wind Chill: 42°   Ceiling: 4700
Heat Index: 42°   Visibility: 10mi
Dew Point: 36°   Wind: 3mph
Humidity: 79%   Direction: 150°SSE
Pressure: 30.03"   Gusts: NA
Location:  42.41°N, 77.42°W
Report Text: KDSV 310354Z AUTO 15003KT 10SM OVC047 06/02 A3003 RMK AO2 SLP181 T00560022
Loading
Personal Weather Stations






























Interactive Weather Map
Tropical Storm Tracking
New forecast layout! Learn more

10-Day Weather Forecast

Advertisements
Track Severe Weather on mobile